createdAt,value
2022-11-25T00:01:05.552Z,4.70
2022-11-25T00:03:32.325Z,4.03
2022-11-25T00:06:21.082Z,3.83
2022-11-25T00:08:49.613Z,4.50
2022-11-25T00:11:17.984Z,4.85
2022-11-25T00:13:45.757Z,4.32
2022-11-25T00:16:14.658Z,3.47
2022-11-25T00:18:45.247Z,3.75
2022-11-25T00:21:14.274Z,3.95
2022-11-25T00:23:41.162Z,3.08
2022-11-25T00:26:14.382Z,3.08
2022-11-25T00:28:43.090Z,3.20
2022-11-25T00:31:18.910Z,3.63
2022-11-25T00:33:45.848Z,2.70
2022-11-25T00:36:30.283Z,2.13
2022-11-25T00:39:04.871Z,3.17
2022-11-25T00:41:31.820Z,2.75
2022-11-25T00:43:59.316Z,1.63
2022-11-25T00:46:26.089Z,3.95
2022-11-25T00:48:52.433Z,3.88
2022-11-25T00:51:19.102Z,3.28
2022-11-25T00:53:45.529Z,2.95
2022-11-25T00:56:11.845Z,2.55
2022-11-25T00:58:38.249Z,1.88
2022-11-25T01:01:04.866Z,3.40
2022-11-25T01:03:32.003Z,3.75
2022-11-25T01:06:02.350Z,4.30
2022-11-25T01:08:32.934Z,2.40
2022-11-25T01:11:03.058Z,2.40
2022-11-25T01:13:29.600Z,1.98
2022-11-25T01:15:56.178Z,2.30
2022-11-25T01:18:23.365Z,1.83
2022-11-25T01:20:49.708Z,2.28
2022-11-25T01:23:16.081Z,1.25
2022-11-25T01:25:42.871Z,1.60
2022-11-25T01:28:09.557Z,1.38
2022-11-25T01:30:40.893Z,2.03
2022-11-25T01:33:07.646Z,2.35
2022-11-25T01:35:37.435Z,1.80
2022-11-25T01:38:04.128Z,2.10
2022-11-25T01:40:30.530Z,1.75
2022-11-25T01:42:56.890Z,1.20
2022-11-25T01:45:33.915Z,1.58
2022-11-25T01:48:06.863Z,2.25
2022-11-25T01:50:35.311Z,1.60
2022-11-25T01:53:06.261Z,2.47
2022-11-25T01:55:35.769Z,2.25
2022-11-25T01:58:13.060Z,1.90
2022-11-25T02:00:39.890Z,1.75
2022-11-25T02:03:08.299Z,1.30
2022-11-25T02:05:48.899Z,1.90
2022-11-25T02:08:16.810Z,1.88
2022-11-25T02:10:45.135Z,1.80
2022-11-25T02:13:12.286Z,1.70
2022-11-25T02:15:38.671Z,1.90
2022-11-25T02:18:06.457Z,1.63
2022-11-25T02:20:33.255Z,2.22
2022-11-25T02:23:11.812Z,2.15
2022-11-25T02:25:40.837Z,2.35
2022-11-25T02:28:22.098Z,2.20
2022-11-25T02:30:49.274Z,1.73
2022-11-25T02:33:17.343Z,2.22
2022-11-25T02:35:48.239Z,3.15
2022-11-25T02:38:19.031Z,2.40
2022-11-25T02:40:57.237Z,2.22
2022-11-25T02:43:24.184Z,2.38
2022-11-25T02:46:03.346Z,2.10
2022-11-25T02:49:06.838Z,2.40
2022-11-25T02:51:24.191Z,2.00
2022-11-25T02:53:52.003Z,2.35
2022-11-25T02:56:21.165Z,2.60
2022-11-25T02:58:47.670Z,1.75
2022-11-25T03:01:14.776Z,2.28
2022-11-25T03:03:41.273Z,1.90
2022-11-25T03:06:08.569Z,2.35
2022-11-25T03:08:35.940Z,2.20
2022-11-25T03:11:02.358Z,2.03
2022-11-25T03:13:28.778Z,2.20
2022-11-25T03:15:55.728Z,2.05
2022-11-25T03:18:22.405Z,1.65
2022-11-25T03:20:53.007Z,2.28
2022-11-25T03:23:20.209Z,1.92
2022-11-25T03:25:46.778Z,2.00
2022-11-25T03:28:13.535Z,2.35
2022-11-25T03:30:39.887Z,2.10
2022-11-25T03:33:06.392Z,2.30
2022-11-25T03:35:32.790Z,2.50
2022-11-25T03:37:59.180Z,1.73
2022-11-25T03:40:25.621Z,2.13
2022-11-25T03:42:52.285Z,1.80
2022-11-25T03:45:18.705Z,1.77
2022-11-25T03:47:46.058Z,1.80
2022-11-25T03:50:14.560Z,2.17
2022-11-25T03:52:41.276Z,1.90
2022-11-25T03:55:08.280Z,2.28
2022-11-25T03:57:35.419Z,2.25
2022-11-25T04:00:02.550Z,2.00
2022-11-25T04:02:28.938Z,2.10
2022-11-25T04:04:55.282Z,2.22
2022-11-25T04:07:21.827Z,2.17
2022-11-25T04:09:48.236Z,2.40
2022-11-25T04:12:14.906Z,1.88
2022-11-25T04:14:41.473Z,2.78
2022-11-25T04:17:07.895Z,2.50
2022-11-25T04:19:34.250Z,2.10
2022-11-25T04:22:01.164Z,2.00
2022-11-25T04:24:27.778Z,2.22
2022-11-25T04:26:54.229Z,1.75
2022-11-25T04:29:21.451Z,1.95
2022-11-25T04:31:48.123Z,3.35
2022-11-25T04:34:14.742Z,2.10
2022-11-25T04:36:41.184Z,2.05
2022-11-25T04:39:07.995Z,2.35
2022-11-25T04:41:34.328Z,2.03
2022-11-25T04:44:00.647Z,1.90
2022-11-25T04:46:34.652Z,2.42
2022-11-25T04:49:01.356Z,2.30
2022-11-25T04:51:27.716Z,2.40
2022-11-25T04:53:54.118Z,2.10
2022-11-25T04:56:20.640Z,2.30
2022-11-25T04:58:47.248Z,2.53
2022-11-25T05:01:14.010Z,2.05
2022-11-25T05:03:44.801Z,1.95
2022-11-25T05:06:14.593Z,2.35
2022-11-25T05:08:40.997Z,2.25
2022-11-25T05:11:07.483Z,2.80
2022-11-25T05:13:34.169Z,2.17
2022-11-25T05:16:00.537Z,2.35
2022-11-25T05:18:26.965Z,2.72
2022-11-25T05:20:53.298Z,2.63
2022-11-25T05:23:19.649Z,2.30
2022-11-25T05:25:46.312Z,2.17
2022-11-25T05:28:12.623Z,2.38
2022-11-25T05:30:39.083Z,2.38
2022-11-25T05:33:05.503Z,2.30
2022-11-25T05:35:32.205Z,1.98
2022-11-25T05:38:00.147Z,2.40
2022-11-25T05:40:26.493Z,2.67
2022-11-25T05:42:53.041Z,1.67
2022-11-25T05:45:19.422Z,2.97
2022-11-25T05:47:45.816Z,2.90
2022-11-25T05:50:12.129Z,2.58
2022-11-25T05:52:38.806Z,2.47
2022-11-25T05:55:05.634Z,2.75
2022-11-25T05:57:32.043Z,2.22
2022-11-25T05:59:58.367Z,3.25
2022-11-25T06:02:25.044Z,2.78
2022-11-25T06:04:51.511Z,2.03
2022-11-25T06:07:17.896Z,2.95
2022-11-25T06:09:44.299Z,2.10
2022-11-25T06:12:11.893Z,2.50
2022-11-25T06:14:38.576Z,2.47
2022-11-25T06:17:05.112Z,2.67
2022-11-25T06:19:31.452Z,3.10
2022-11-25T06:21:58.046Z,2.47
2022-11-25T06:24:24.550Z,3.08
2022-11-25T06:26:50.893Z,2.72
2022-11-25T06:29:17.335Z,3.03
2022-11-25T06:31:44.062Z,2.55
2022-11-25T06:34:10.483Z,2.58
2022-11-25T06:36:37.408Z,3.13
2022-11-25T06:39:03.984Z,2.60
2022-11-25T06:41:30.343Z,2.60
2022-11-25T06:43:56.872Z,3.00
2022-11-25T06:46:25.344Z,3.47
2022-11-25T06:48:53.391Z,2.75
2022-11-25T06:51:20.380Z,2.78
2022-11-25T06:53:46.843Z,2.92
2022-11-25T06:56:14.681Z,4.20
2022-11-25T06:58:42.411Z,3.67
2022-11-25T07:01:12.769Z,3.40
2022-11-25T07:03:39.463Z,3.00
2022-11-25T07:06:06.428Z,3.53
2022-11-25T07:08:34.343Z,3.38
2022-11-25T07:11:06.324Z,2.97
2022-11-25T07:13:33.192Z,2.80
2022-11-25T07:16:04.632Z,3.47
2022-11-25T07:18:32.507Z,2.83
2022-11-25T07:21:11.420Z,3.67
2022-11-25T07:23:39.008Z,3.45
2022-11-25T07:26:11.769Z,3.33
2022-11-25T07:28:39.220Z,3.10
2022-11-25T07:31:23.221Z,3.17
2022-11-25T07:34:02.653Z,2.78
2022-11-25T07:36:31.306Z,3.38
2022-11-25T07:39:00.857Z,3.28
2022-11-25T07:41:28.644Z,3.75
2022-11-25T07:43:57.751Z,3.28
2022-11-25T07:46:27.704Z,3.60
2022-11-25T07:48:59.415Z,3.88
2022-11-25T07:51:29.009Z,3.72
2022-11-25T07:53:57.121Z,4.60
2022-11-25T07:56:24.609Z,4.28
2022-11-25T07:58:51.562Z,4.15
2022-11-25T08:01:18.304Z,4.47
2022-11-25T08:03:46.695Z,3.72
2022-11-25T08:06:15.928Z,5.05
2022-11-25T08:08:43.424Z,5.40
2022-11-25T08:11:13.526Z,4.85
2022-11-25T08:13:40.281Z,4.57
2022-11-25T08:16:16.581Z,4.63
2022-11-25T08:18:43.011Z,4.55
2022-11-25T08:21:11.344Z,5.45
2022-11-25T08:23:39.882Z,5.97
2022-11-25T08:26:08.588Z,5.13
2022-11-25T08:28:36.472Z,5.07
2022-11-25T08:31:08.037Z,4.65
2022-11-25T08:33:35.202Z,4.88
2022-11-25T08:36:01.654Z,6.10
2022-11-25T08:38:28.578Z,6.55
2022-11-25T08:41:00.524Z,6.35
2022-11-25T08:43:29.719Z,7.18
2022-11-25T08:45:56.895Z,6.45
2022-11-25T08:48:24.202Z,6.10
2022-11-25T08:50:53.417Z,5.28
2022-11-25T08:53:21.413Z,5.15
2022-11-25T08:55:49.475Z,4.45
2022-11-25T08:58:16.426Z,3.83
2022-11-25T09:00:44.548Z,4.63
2022-11-25T09:03:12.214Z,4.22
2022-11-25T09:05:41.273Z,3.70
2022-11-25T09:08:08.775Z,3.97
2022-11-25T09:10:37.098Z,3.72
2022-11-25T09:13:03.551Z,4.50
2022-11-25T09:15:30.236Z,3.92
2022-11-25T09:18:05.614Z,3.72
2022-11-25T09:20:33.889Z,3.50
2022-11-25T09:23:01.927Z,3.72
2022-11-25T09:25:29.593Z,1.95
2022-11-25T09:27:56.886Z,2.25
2022-11-25T09:30:25.095Z,2.10
2022-11-25T09:32:53.763Z,2.20
2022-11-25T09:35:23.741Z,2.25
2022-11-25T09:37:50.506Z,2.70
2022-11-25T09:40:35.231Z,1.65
2022-11-25T09:43:23.646Z,1.88
2022-11-25T09:46:04.611Z,2.40
2022-11-25T09:48:49.881Z,2.50
2022-11-25T09:51:31.224Z,1.95
2022-11-25T09:54:23.346Z,1.42
2022-11-25T09:57:29.014Z,1.27
2022-11-25T10:00:17.448Z,1.17
2022-11-25T10:03:04.024Z,1.67
2022-11-25T10:05:46.386Z,0.90
2022-11-25T10:08:18.819Z,1.63
2022-11-25T10:10:49.809Z,1.48
2022-11-25T10:13:32.114Z,1.35
2022-11-25T10:16:05.743Z,0.93
2022-11-25T10:18:42.385Z,0.80
2022-11-25T10:21:10.760Z,1.30
2022-11-25T10:23:40.534Z,1.00
2022-11-25T10:26:32.193Z,0.93
2022-11-25T10:29:13.827Z,0.50
2022-11-25T10:31:43.051Z,1.08
2022-11-25T10:34:27.017Z,1.00
2022-11-25T10:36:59.539Z,0.88
2022-11-25T10:39:31.268Z,1.02
2022-11-25T10:42:02.530Z,1.00
2022-11-25T10:44:29.993Z,1.00
2022-11-25T10:47:17.828Z,1.02
2022-11-25T10:50:07.361Z,1.20
2022-11-25T10:53:10.795Z,0.75
2022-11-25T10:55:58.450Z,1.40
2022-11-25T10:58:36.395Z,0.68
2022-11-25T11:01:24.402Z,1.25
2022-11-25T11:04:13.310Z,0.60
2022-11-25T11:06:42.440Z,1.08
2022-11-25T11:09:35.295Z,1.00
2022-11-25T11:12:15.669Z,1.17
2022-11-25T11:14:42.199Z,1.63
2022-11-25T11:17:26.581Z,1.70
2022-11-25T11:20:16.104Z,1.70
2022-11-25T11:22:49.200Z,1.15
2022-11-25T11:25:21.370Z,1.13
2022-11-25T11:27:48.215Z,1.65
2022-11-25T11:30:16.662Z,0.93
2022-11-25T11:33:04.208Z,1.65
2022-11-25T11:35:46.722Z,1.13
2022-11-25T11:38:33.821Z,1.40
2022-11-25T11:41:23.710Z,1.30
2022-11-25T11:44:38.376Z,1.05
2022-11-25T11:47:30.333Z,2.13
2022-11-25T11:50:21.073Z,1.27
2022-11-25T11:52:56.793Z,1.50
2022-11-25T11:58:12.443Z,1.70
2022-11-25T12:00:50.806Z,1.90
2022-11-25T12:03:24.111Z,1.80
2022-11-25T12:05:51.370Z,1.70
2022-11-25T12:08:57.137Z,1.67
2022-11-25T12:11:29.326Z,1.63
2022-11-25T12:14:42.138Z,1.95
2022-11-25T12:17:29.571Z,2.13
2022-11-25T12:20:18.825Z,2.08
2022-11-25T12:23:12.819Z,2.20
2022-11-25T12:25:41.762Z,1.65
2022-11-25T12:28:16.180Z,2.03
2022-11-25T12:31:05.413Z,1.90
2022-11-25T12:34:25.172Z,2.08
2022-11-25T12:36:52.240Z,1.90
2022-11-25T12:39:28.736Z,2.33
2022-11-25T12:41:59.907Z,2.33
2022-11-25T12:44:44.095Z,2.30
2022-11-25T12:47:11.519Z,2.00
2022-11-25T12:49:44.460Z,1.73
2022-11-25T12:52:29.759Z,2.90
2022-11-25T12:55:21.768Z,2.50
2022-11-25T12:58:06.847Z,2.58
2022-11-25T13:00:57.779Z,2.40
2022-11-25T13:04:00.924Z,2.28
2022-11-25T13:06:33.152Z,2.05
2022-11-25T13:09:35.543Z,1.95
2022-11-25T13:12:20.879Z,2.17
2022-11-25T13:15:17.317Z,1.98
2022-11-25T13:17:46.358Z,1.83
2022-11-25T13:20:33.654Z,2.63
2022-11-25T13:23:07.192Z,2.55
2022-11-25T13:25:34.794Z,2.45
2022-11-25T13:28:04.553Z,2.22
2022-11-25T13:30:33.696Z,1.85
2022-11-25T13:33:09.356Z,2.03
2022-11-25T13:35:36.396Z,2.10
2022-11-25T13:38:07.597Z,1.83
2022-11-25T13:40:38.113Z,2.08
2022-11-25T13:43:05.584Z,2.13
2022-11-25T13:45:44.891Z,2.38
2022-11-25T13:48:19.525Z,2.15
2022-11-25T13:51:10.059Z,2.40
2022-11-25T13:53:35.773Z,2.10
2022-11-25T13:56:25.456Z,1.88
2022-11-25T13:59:10.667Z,1.70
2022-11-25T14:01:51.643Z,2.00
2022-11-25T14:04:30.571Z,1.92
2022-11-25T14:07:06.089Z,2.65
2022-11-25T14:09:56.955Z,4.03
2022-11-25T14:12:57.074Z,3.17
2022-11-25T14:15:44.415Z,2.17
2022-11-25T14:18:44.753Z,1.88
2022-11-25T14:21:43.860Z,2.22
2022-11-25T14:24:37.889Z,1.60
2022-11-25T14:27:05.825Z,1.85
2022-11-25T14:29:32.090Z,2.30
2022-11-25T14:32:09.063Z,2.15
2022-11-25T14:34:50.243Z,2.50
2022-11-25T14:37:22.448Z,2.50
2022-11-25T14:39:58.609Z,2.05
2022-11-25T14:42:31.772Z,2.20
2022-11-25T14:44:58.430Z,2.03
2022-11-25T14:47:35.952Z,2.35
2022-11-25T14:50:33.636Z,2.00
2022-11-25T14:52:58.920Z,3.38
2022-11-25T14:55:30.476Z,3.45
2022-11-25T14:57:57.219Z,3.60
2022-11-25T15:00:24.414Z,3.13
2022-11-25T15:02:56.215Z,2.97
2022-11-25T15:05:31.473Z,3.25
2022-11-25T15:08:01.854Z,2.35
2022-11-25T15:10:30.841Z,2.33
2022-11-25T15:12:59.301Z,2.53
2022-11-25T15:15:27.565Z,2.65
2022-11-25T15:17:54.461Z,3.47
2022-11-25T15:20:25.532Z,3.60
2022-11-25T15:22:53.129Z,3.33
2022-11-25T15:25:19.751Z,2.92
2022-11-25T15:27:50.162Z,3.42
2022-11-25T15:30:27.753Z,2.90
2022-11-25T15:32:55.140Z,2.60
2022-11-25T15:35:27.172Z,3.83
2022-11-25T15:37:53.895Z,3.15
2022-11-25T15:40:41.024Z,2.70
2022-11-25T15:43:24.992Z,2.85
2022-11-25T15:45:55.823Z,2.85
2022-11-25T15:48:28.724Z,2.88
2022-11-25T15:51:03.469Z,3.45
2022-11-25T15:53:33.617Z,3.17
2022-11-25T15:56:01.491Z,2.97
2022-11-25T15:58:28.078Z,2.80
2022-11-25T16:01:06.030Z,2.55
2022-11-25T16:03:34.338Z,2.53
2022-11-25T16:06:02.467Z,2.78
2022-11-25T16:08:39.287Z,2.28
2022-11-25T16:11:14.632Z,2.80
2022-11-25T16:13:42.380Z,3.17
2022-11-25T16:16:25.204Z,3.33
2022-11-25T16:18:51.598Z,3.28
2022-11-25T16:21:23.068Z,4.50
2022-11-25T16:23:53.069Z,5.07
2022-11-25T16:26:31.959Z,3.85
2022-11-25T16:29:01.122Z,5.75
2022-11-25T16:31:28.237Z,5.10
2022-11-25T16:34:00.463Z,6.95
2022-11-25T16:36:26.881Z,4.55
2022-11-25T16:38:53.772Z,5.85
2022-11-25T16:41:23.769Z,3.63
2022-11-25T16:43:50.415Z,4.00
2022-11-25T16:46:19.430Z,10.00
2022-11-25T16:48:47.228Z,5.10
2022-11-25T16:51:21.868Z,4.10
2022-11-25T16:53:48.345Z,4.80
2022-11-25T16:56:18.529Z,3.30
2022-11-25T16:58:45.267Z,3.88
2022-11-25T17:01:17.009Z,4.43
2022-11-25T17:03:44.181Z,4.45
2022-11-25T17:06:21.462Z,4.20
2022-11-25T17:08:49.204Z,4.00
2022-11-25T17:11:17.608Z,5.43
2022-11-25T17:13:47.906Z,5.07
2022-11-25T17:16:24.184Z,5.18
2022-11-25T17:18:52.991Z,4.63
2022-11-25T17:21:20.208Z,5.28
2022-11-25T17:23:50.116Z,6.80
2022-11-25T17:26:32.903Z,5.85
2022-11-25T17:29:01.598Z,4.97
2022-11-25T17:31:32.579Z,6.55
2022-11-25T17:33:59.243Z,7.25
2022-11-25T17:36:26.616Z,7.15
2022-11-25T17:38:53.211Z,6.35
2022-11-25T17:41:21.872Z,5.68
2022-11-25T17:43:51.375Z,6.63
2022-11-25T17:46:18.400Z,7.38
2022-11-25T17:48:45.031Z,9.20
2022-11-25T17:51:13.593Z,10.70
2022-11-25T17:53:41.046Z,6.18
2022-11-25T17:56:28.563Z,3.80
2022-11-25T17:58:58.214Z,4.25
2022-11-25T18:01:24.641Z,4.18
2022-11-25T18:03:50.968Z,4.10
2022-11-25T18:06:17.399Z,3.75
2022-11-25T18:08:43.746Z,4.05
2022-11-25T18:11:15.175Z,3.60
2022-11-25T18:13:43.742Z,4.65
2022-11-25T18:16:11.007Z,4.45
2022-11-25T18:18:37.702Z,5.18
2022-11-25T18:21:04.287Z,5.65
2022-11-25T18:23:30.613Z,5.82
2022-11-25T18:26:00.389Z,6.38
2022-11-25T18:28:29.759Z,11.38
2022-11-25T18:30:59.911Z,7.25
2022-11-25T18:33:26.681Z,16.08
2022-11-25T18:35:53.047Z,13.57
2022-11-25T18:38:19.450Z,20.55
2022-11-25T18:40:50.415Z,32.30
2022-11-25T18:43:22.002Z,11.65
2022-11-25T18:45:49.257Z,6.18
2022-11-25T18:48:21.640Z,7.50
2022-11-25T18:50:49.714Z,6.82
2022-11-25T18:53:16.338Z,4.90
2022-11-25T18:55:43.237Z,5.55
2022-11-25T18:58:18.848Z,6.50
2022-11-25T19:00:47.936Z,6.38
2022-11-25T19:03:25.877Z,7.00
2022-11-25T19:05:53.749Z,6.70
2022-11-25T19:08:20.672Z,6.13
2022-11-25T19:10:48.656Z,6.80
2022-11-25T19:13:20.008Z,6.22
2022-11-25T19:15:47.416Z,6.93
2022-11-25T19:18:19.955Z,5.90
2022-11-25T19:20:46.351Z,6.53
2022-11-25T19:23:21.598Z,5.63
2022-11-25T19:25:49.376Z,5.45
2022-11-25T19:28:16.916Z,7.90
2022-11-25T19:30:45.389Z,14.02
2022-11-25T19:33:22.477Z,15.07
2022-11-25T19:35:49.163Z,13.05
2022-11-25T19:38:19.858Z,8.55
2022-11-25T19:40:46.547Z,10.15
2022-11-25T19:43:13.206Z,8.98
2022-11-25T19:45:40.173Z,8.75
2022-11-25T19:48:12.349Z,7.95
2022-11-25T19:50:40.116Z,6.22
2022-11-25T19:53:14.106Z,6.50
2022-11-25T19:55:40.538Z,6.43
2022-11-25T19:58:08.288Z,6.20
2022-11-25T20:00:34.866Z,5.05
2022-11-25T20:03:01.237Z,7.38
2022-11-25T20:05:36.719Z,7.63
2022-11-25T20:10:32.093Z,7.80
2022-11-25T20:12:59.409Z,6.63
2022-11-25T20:15:26.830Z,7.35
2022-11-25T20:17:55.992Z,6.18
2022-11-25T20:20:29.418Z,5.13
2022-11-25T20:23:01.553Z,6.22
2022-11-25T20:25:28.755Z,6.18
2022-11-25T20:27:55.609Z,5.97
2022-11-25T20:30:27.330Z,9.95
2022-11-25T20:32:53.761Z,5.88
2022-11-25T20:35:20.475Z,7.00
2022-11-25T20:37:47.462Z,13.82
2022-11-25T20:40:17.627Z,6.25
2022-11-25T20:42:44.084Z,5.88
2022-11-25T20:45:16.101Z,5.47
2022-11-25T20:47:42.597Z,4.78
2022-11-25T20:50:10.845Z,5.18
2022-11-25T20:52:37.214Z,5.75
2022-11-25T20:55:14.974Z,4.30
2022-11-25T20:57:41.413Z,4.68
2022-11-25T21:00:23.418Z,4.78
2022-11-25T21:02:52.240Z,5.00
2022-11-25T21:05:19.081Z,4.45
2022-11-25T21:07:47.397Z,5.65
2022-11-25T21:10:22.131Z,5.03
2022-11-25T21:12:49.043Z,5.00
2022-11-25T21:15:18.949Z,5.03
2022-11-25T21:17:45.837Z,5.32
2022-11-25T21:20:13.439Z,5.65
2022-11-25T21:22:42.654Z,5.07
2022-11-25T21:25:13.450Z,5.22
2022-11-25T21:27:40.926Z,4.95
2022-11-25T21:30:16.666Z,4.95
2022-11-25T21:32:43.322Z,5.63
2022-11-25T21:35:11.889Z,4.90
2022-11-25T21:37:39.136Z,5.03
2022-11-25T21:40:06.652Z,5.63
2022-11-25T21:42:33.249Z,5.40
2022-11-25T21:45:00.026Z,5.10
2022-11-25T21:47:29.892Z,5.43
2022-11-25T21:49:56.229Z,5.03
2022-11-25T21:52:22.923Z,5.40
2022-11-25T21:54:49.385Z,4.93
2022-11-25T21:57:22.425Z,5.85
2022-11-25T21:59:49.283Z,4.88
2022-11-25T22:02:18.034Z,4.25
2022-11-25T22:04:45.194Z,5.15
2022-11-25T22:07:11.684Z,5.40
2022-11-25T22:09:38.597Z,5.30
2022-11-25T22:12:06.029Z,4.70
2022-11-25T22:14:35.325Z,5.72
2022-11-25T22:17:04.822Z,4.97
2022-11-25T22:19:31.568Z,4.78
2022-11-25T22:21:57.952Z,5.03
2022-11-25T22:24:24.548Z,5.85
2022-11-25T22:26:57.200Z,5.38
2022-11-25T22:29:32.393Z,5.35
2022-11-25T22:31:58.972Z,5.28
2022-11-25T22:34:25.535Z,6.47
2022-11-25T22:36:52.683Z,5.93
2022-11-25T22:39:24.612Z,8.95
2022-11-25T22:41:58.847Z,8.30
2022-11-25T22:44:32.616Z,6.47
2022-11-25T22:46:59.175Z,6.15
2022-11-25T22:49:40.324Z,5.40
2022-11-25T22:52:17.715Z,6.57
2022-11-25T22:54:44.093Z,6.60
2022-11-25T22:57:10.800Z,6.72
2022-11-25T22:59:37.269Z,5.72
2022-11-25T23:02:05.222Z,5.88
2022-11-25T23:04:31.611Z,5.93
2022-11-25T23:06:58.337Z,6.20
2022-11-25T23:09:24.657Z,6.70
2022-11-25T23:11:51.059Z,6.70
2022-11-25T23:14:17.530Z,5.90
2022-11-25T23:16:44.040Z,7.05
2022-11-25T23:19:16.912Z,7.22
2022-11-25T23:21:44.997Z,6.72
2022-11-25T23:24:14.992Z,5.95
2022-11-25T23:26:42.035Z,6.65
2022-11-25T23:29:09.043Z,6.20
2022-11-25T23:31:37.077Z,6.70
2022-11-25T23:34:05.269Z,7.43
2022-11-25T23:36:44.761Z,6.57
2022-11-25T23:39:18.838Z,6.32
2022-11-25T23:41:45.204Z,7.18
2022-11-25T23:44:16.886Z,7.05
2022-11-25T23:46:44.729Z,7.38
2022-11-25T23:49:20.890Z,6.70
2022-11-25T23:51:47.533Z,7.25
2022-11-25T23:54:16.787Z,6.07
2022-11-25T23:56:43.229Z,5.18
2022-11-25T23:59:17.229Z,6.85
